Longview, TX (75605)

2:29 AM CST on March 01, 2015 (GMT -0600)
N8QVR - NW Longview | Change Station
CLOSE
Current Station
Personal Weather Station
Location: Longview, TX
Elevation: 465 ft
Nearby Weather Stations

Elev 465 ft 32.54 °N, 94.81 °W | Updated 1 second ago

Mostly Cloudy
Mostly Cloudy
36.0 °F
Feels Like 33 °F
N
4.0
Wind Variable Wind from NE
Gusts 5.0 mph

Today
High -- | Low -- °F
--% Chance of Precip.
Yesterday
High -- | Low -- °F
Precip. -- in
6:47 AM 6:16 PM
Waxing Gibbous, 83% visible
Pressure 30.30 in
Visibility 10.0 miles
Clouds Overcast 3200 ft
Windchill 33 °F
Dew Point 32 °F
Humidity 87%
Rainfall 0.04 in
Snow Depth Not available.
UV 0.0 out of 12
Pollen 6.20 out of 12
Air Quality Not available.
Flu Activity Not available.
METAR KGGG 010753Z AUTO 35007KT 10SM OVC032 04/M01 A3029 RMK AO2 RAE0659B31E42 SLP260 P0000 T00391011 TSNO

More Conditions Fewer Conditions

Pressure 30.30 in
Visibility 10.0 miles
Clouds Overcast 3200 ft
Windchill 33 °F
Dew Point 32 °F
Humidity 87%
Rainfall 0.04 in
Snow Depth Not available.
UV 0.0 out of 12
Pollen 6.20 out of 12
Air Quality Not available.
Flu Activity Not available.
METAR KGGG 010753Z AUTO 35007KT 10SM OVC032 04/M01 A3029 RMK AO2 RAE0659B31E42 SLP260 P0000 T00391011 TSNO

More Conditions Fewer Conditions

Nowcast | as of 11:52 PM CST on February 28, 2015

Scattered areas of light rain and drizzle will continue to develop and spread northeast across portions of northeast Texas...northwest Louisiana...and southwest Arkansas...during the next couple of hours. Expect rainfall amounts to range from a trace to several hundredths of an inch...through 2 am.

×

10-Day Weather Forecast

Almanac

Astronomy

Mar. 01, 2015 Rise Set
Actual Time
Civil Twilight
Nautical Twilight
Astronomical Twilight
Moon
Length of Visible Light
Length of Day
Tomorrow will be .
, % of the Moon is Illuminated

Today's Extremes

State Highs State Lows

Community

WunderPhotos

Upload Photos

1,801,350 photos uploaded!

WunderBlogs® & News

Nearby

Air Quality

  Air Quality AQ Index Pollutant
Not available.

Snow Depth

Station Depth Elevation

Earthquake Activity

City Distance Mag. Time & Date
Minimum magnitude displayed is 2.5.

Coastal Water Temperatures

Place Temperature

Nearby Weather Stations